Time;durP1;ratioP1;P1;durP2;ratioP2;P2;SDS_P1;SDS_P2;PMS_P1;PMS_P2;Temp;Humidity;BMP_temperature;BMP_pressure;BME280_temperature;BME280_humidity;BME280_pressure;Samples;Min_cycle;Max_cycle;Signal;HPM_P1;HPM_P2
2023/05/10 00:01:04;;;;;;;8.90;3.80;;;;;;;-144.73;54.14;54249.66;5023922;28;20110;-71
2023/05/10 00:03:30;;;;;;;11.05;3.28;;;;;;;-144.73;55.05;54210.66;5006931;28;20072;-70
2023/05/10 00:05:56;;;;;;;5.85;3.58;;;;;;;-144.73;55.10;54239.41;5025044;28;20041;-70
2023/05/10 00:08:21;;;;;;;8.52;4.30;;;;;;;-144.73;56.11;54210.66;5006250;28;20026;-70
2023/05/10 00:10:47;;;;;;;6.70;3.78;;;;;;;-144.73;55.70;54227.09;5006311;28;20085;-70
2023/05/10 00:13:12;;;;;;;6.57;3.63;;;;;;;-144.73;55.24;54206.56;5005576;28;20033;-70
2023/05/10 00:15:37;;;;;;;11.55;4.10;;;;;;;-144.73;55.50;54202.44;5009380;28;20109;-70
2023/05/10 00:18:03;;;;;;;10.85;3.97;;;;;;;-144.73;56.33;54218.88;5004687;28;20060;-71
2023/05/10 00:20:28;;;;;;;8.77;4.13;;;;;;;-144.73;56.25;54231.19;5004858;28;20042;-69
2023/05/10 00:22:54;;;;;;;7.70;3.72;;;;;;;-144.73;56.33;54227.09;5012710;28;20036;-69
2023/05/10 00:25:21;;;;;;;10.80;3.55;;;;;;;-144.73;56.12;54231.19;5029803;28;20022;-69
2023/05/10 00:27:47;;;;;;;7.97;4.00;;;;;;;-144.73;56.78;54218.88;5012624;28;20096;-69
2023/05/10 00:30:12;;;;;;;6.88;3.72;;;;;;;-144.73;57.25;54198.34;5008989;28;20029;-69
2023/05/10 00:32:37;;;;;;;6.18;3.83;;;;;;;-144.73;57.50;54227.09;5026895;28;20046;-69
2023/05/10 00:35:03;;;;;;;7.88;3.60;;;;;;;-144.73;57.95;54206.56;5028441;28;20037;-69
2023/05/10 00:37:28;;;;;;;22.50;4.03;;;;;;;-144.73;57.37;54210.66;5013794;28;20448;-69
2023/05/10 00:39:54;;;;;;;10.13;3.50;;;;;;;-144.73;57.65;54198.34;5013505;28;20100;-70
2023/05/10 00:42:19;;;;;;;11.25;4.18;;;;;;;-144.73;57.81;54210.66;5029847;28;20136;-70
2023/05/10 00:44:44;;;;;;;9.60;3.92;;;;;;;-144.73;57.97;54210.66;5029754;28;20455;-70
2023/05/10 00:47:10;;;;;;;5.07;3.50;;;;;;;-144.73;57.88;54231.19;5009875;28;20109;-70
2023/05/10 00:49:36;;;;;;;6.32;3.65;;;;;;;-144.73;57.60;54251.72;5009554;28;20038;-70
2023/05/10 00:52:02;;;;;;;10.38;3.92;;;;;;;-144.73;57.57;54255.81;4997650;28;20033;-71
2023/05/10 00:54:28;;;;;;;10.32;3.90;;;;;;;-144.73;58.13;54169.63;4997992;28;20037;-70
2023/05/10 00:56:53;;;;;;;11.82;3.95;;;;;;;-144.73;58.35;54214.78;5023314;28;20025;-70
2023/05/10 00:59:19;;;;;;;12.77;4.05;;;;;;;-144.73;57.51;54237.34;5008905;28;20025;-71
2023/05/10 01:01:45;;;;;;;6.95;4.20;;;;;;;-144.73;58.53;54204.50;5010492;28;20026;-70
2023/05/10 01:04:15;;;;;;;13.85;3.83;;;;;;;-144.73;58.39;54255.81;5004779;28;20028;-71
2023/05/10 01:06:41;;;;;;;7.13;4.10;;;;;;;-144.73;58.65;54235.28;5003912;28;20056;-70
2023/05/10 01:09:07;;;;;;;8.95;4.13;;;;;;;-144.73;58.62;54190.13;5009187;28;20038;-72
2023/05/10 01:11:35;;;;;;;9.27;4.05;;;;;;;-144.73;59.96;54214.78;5005224;28;20029;-71
2023/05/10 01:14:01;;;;;;;8.73;3.78;;;;;;;-144.73;59.35;54247.59;4997835;28;20112;-70
2023/05/10 01:16:29;;;;;;;12.52;4.03;;;;;;;-144.73;59.94;54220.94;5020867;28;20030;-70
2023/05/10 01:18:55;;;;;;;14.18;4.40;;;;;;;-144.73;59.64;54210.66;5010443;28;20508;-71
2023/05/10 01:21:36;;;;;;;11.98;4.20;;;;;;;-144.73;59.58;54227.09;5008017;28;20025;-70
2023/05/10 01:24:42;;;;;;;13.53;4.10;;;;;;;-144.73;59.48;54259.91;5004095;28;20021;-70
2023/05/10 01:27:41;;;;;;;13.10;4.28;;;;;;;-144.73;59.88;54235.28;4962689;28;20035;-70
2023/05/10 01:30:30;;;;;;;17.40;4.57;;;;;;;-144.73;59.93;54222.97;4953980;28;20093;-70
2023/05/10 01:33:11;;;;;;;9.30;4.22;;;;;;;-144.73;60.44;54188.09;5004715;28;20034;-72
2023/05/10 01:35:43;;;;;;;12.52;4.50;;;;;;;-144.73;60.45;54225.03;5006701;28;20036;-71
2023/05/10 01:38:31;;;;;;;16.50;4.32;;;;;;;-144.73;60.70;54249.66;5025733;28;20116;-71
2023/05/10 01:41:19;;;;;;;12.75;4.78;;;;;;;-144.73;60.40;54235.28;5019127;28;20562;-71
2023/05/10 01:44:16;;;;;;;18.90;4.47;;;;;;;-144.73;61.82;54259.91;5021948;28;20128;-71
2023/05/10 01:46:42;;;;;;;11.90;4.25;;;;;;;-144.73;61.71;54231.19;5005375;28;20404;-71
2023/05/10 01:49:40;;;;;;;8.13;3.75;;;;;;;-144.73;61.38;54227.09;5006814;28;20021;-71
2023/05/10 01:52:12;;;;;;;11.32;3.97;;;;;;;-144.73;61.91;54237.34;4990195;28;20056;-70
2023/05/10 01:54:49;;;;;;;7.63;4.05;;;;;;;-144.73;62.34;54243.50;5005535;28;20021;-70
2023/05/10 01:57:16;;;;;;;14.10;4.25;;;;;;;-144.73;62.85;54255.81;5007411;28;20030;-70
2023/05/10 01:59:45;;;;;;;12.88;4.60;;;;;;;-144.73;63.33;54198.34;4996362;28;20029;-70
2023/05/10 02:02:12;;;;;;;12.35;3.70;;;;;;;-144.73;64.07;54235.28;5004174;28;20045;-69
2023/05/10 02:04:39;;;;;;;9.40;4.20;;;;;;;-144.73;64.13;54222.97;5021359;28;20045;-69
2023/05/10 02:07:06;;;;;;;8.30;4.13;;;;;;;-144.73;63.89;54239.41;5030418;28;20396;-69
2023/05/10 02:09:34;;;;;;;15.98;4.28;;;;;;;-144.73;63.21;54231.19;5022235;28;20022;-69
2023/05/10 02:12:02;;;;;;;11.75;5.10;;;;;;;-144.73;63.36;54214.78;5008221;28;20037;-69
2023/05/10 02:14:30;;;;;;;7.28;3.25;;;;;;;-144.73;64.02;54190.13;5028896;28;20028;-69
2023/05/10 02:16:58;;;;;;;7.68;4.20;;;;;;;-144.73;65.44;54264.03;5004232;28;20034;-69
2023/05/10 02:19:24;;;;;;;15.40;4.32;;;;;;;-144.73;65.40;54222.97;5004470;28;20507;-69
2023/05/10 02:21:51;;;;;;;10.50;4.35;;;;;;;-144.73;65.17;54186.03;5007657;28;20777;-70
2023/05/10 02:24:18;;;;;;;10.43;3.90;;;;;;;-144.73;65.62;54227.09;5008469;28;20104;-70
2023/05/10 02:26:45;;;;;;;15.23;4.05;;;;;;;-144.73;65.68;54218.88;5021041;28;20038;-70
2023/05/10 02:29:12;;;;;;;8.75;4.68;;;;;;;-144.73;65.54;54227.09;5024760;28;20117;-70
2023/05/10 02:31:38;;;;;;;8.23;3.97;;;;;;;-144.73;65.92;54227.09;5008394;28;20029;-69
2023/05/10 02:34:07;;;;;;;13.45;3.85;;;;;;;-144.73;65.82;54198.34;5009125;28;20104;-69
2023/05/10 02:36:33;;;;;;;9.13;4.20;;;;;;;-144.73;66.34;54231.19;5022214;28;20026;-70
2023/05/10 02:39:01;;;;;;;12.60;3.97;;;;;;;-144.73;66.49;54243.50;5000366;28;20021;-70
2023/05/10 02:41:28;;;;;;;13.18;4.35;;;;;;;-144.73;67.35;54196.28;5002732;28;20038;-71
2023/05/10 02:43:57;;;;;;;14.25;5.75;;;;;;;-144.73;66.03;54235.28;5000707;28;20029;-69
2023/05/10 02:46:23;;;;;;;14.02;4.90;;;;;;;-144.73;66.60;54235.28;4999115;28;20116;-71
2023/05/10 02:48:48;;;;;;;11.77;4.45;;;;;;;-144.73;66.90;54235.28;5014989;28;20030;-70
2023/05/10 02:51:17;;;;;;;16.10;4.03;;;;;;;-144.73;67.14;54259.91;5024808;28;20033;-71
2023/05/10 02:53:45;;;;;;;11.75;3.95;;;;;;;-144.73;66.79;54243.50;5022575;28;20472;-71
2023/05/10 02:56:19;;;;;;;6.47;4.30;;;;;;;-144.73;67.57;54218.88;5020270;28;20040;-71
2023/05/10 02:58:45;;;;;;;8.13;4.13;;;;;;;-144.73;67.10;54214.78;5008852;28;20017;-70
2023/05/10 03:01:10;;;;;;;12.20;4.63;;;;;;;-144.73;67.30;54212.72;5013877;28;20029;-70
2023/05/10 03:03:36;;;;;;;7.80;4.25;;;;;;;-144.73;68.27;54251.72;5015514;28;20032;-70
2023/05/10 03:06:01;;;;;;;9.18;4.57;;;;;;;-144.73;68.64;54247.59;5010942;28;20099;-70
2023/05/10 03:08:29;;;;;;;11.13;4.93;;;;;;;-144.73;68.89;54231.19;5007773;28;20021;-70
2023/05/10 03:11:42;;;;;;;9.45;4.40;;;;;;;-144.73;68.00;54255.81;5036842;28;20048;-71
2023/05/10 03:14:22;;;;;;;7.97;4.40;;;;;;;-144.73;68.37;54231.19;4974505;28;20038;-71
2023/05/10 03:17:04;;;;;;;15.07;4.43;;;;;;;-144.73;69.25;54206.56;5029649;28;20072;-70
2023/05/10 03:19:29;;;;;;;;;;;;;;;-144.73;69.23;54173.72;5029101;28;20037;-70
2023/05/10 03:21:59;;;;;;;12.27;4.78;;;;;;;-144.73;69.41;54247.59;5020479;28;19974;-70
2023/05/10 03:24:28;;;;;;;9.15;4.55;;;;;;;-144.73;69.46;54194.25;5024098;28;20084;-70
2023/05/10 03:26:56;;;;;;;12.00;4.40;;;;;;;-144.73;69.50;54210.66;5000137;28;20477;-70
2023/05/10 03:29:24;;;;;;;8.60;3.90;;;;;;;-144.73;69.50;54251.72;5019183;28;20060;-70
2023/05/10 03:31:50;;;;;;;10.65;3.83;;;;;;;-144.73;70.01;54235.28;5003748;28;20040;-70
2023/05/10 03:34:15;;;;;;;8.85;4.78;;;;;;;-144.73;70.14;54255.81;5002587;28;20034;-70
2023/05/10 03:36:40;;;;;;;11.93;4.97;;;;;;;-144.73;69.78;54202.44;5023271;28;20102;-70
2023/05/10 03:39:06;;;;;;;12.63;4.57;;;;;;;-144.73;70.68;54251.72;4999707;28;20091;-70
2023/05/10 03:41:31;;;;;;;11.18;4.13;;;;;;;-144.73;69.99;54202.44;5019327;28;20096;-70
2023/05/10 03:43:56;;;;;;;12.52;4.93;;;;;;;-144.73;69.81;54259.91;5003459;28;20042;-70
2023/05/10 03:46:21;;;;;;;9.23;4.28;;;;;;;-144.73;69.80;54218.88;5000474;28;20460;-69
2023/05/10 03:48:47;;;;;;;11.73;4.13;;;;;;;-144.73;70.46;54206.56;4996550;28;20048;-69
2023/05/10 03:51:12;;;;;;;16.27;4.45;;;;;;;-144.73;70.11;54210.66;5016774;28;20114;-68
2023/05/10 03:53:38;;;;;;;9.02;4.50;;;;;;;-144.73;70.44;54198.34;5024721;28;21079;-71
2023/05/10 03:56:03;;;;;;;13.60;5.05;;;;;;;-144.73;70.61;54218.88;5002686;28;20033;-70
2023/05/10 03:58:29;;;;;;;15.65;4.57;;;;;;;-144.73;70.33;54214.78;5016944;28;20117;-70
2023/05/10 04:00:55;;;;;;;11.90;4.65;;;;;;;-144.73;70.51;54259.91;4998342;28;20095;-70
2023/05/10 04:03:20;;;;;;;8.20;4.63;;;;;;;-144.73;71.29;54231.19;5006584;28;20029;-70
2023/05/10 04:05:45;;;;;;;10.48;4.40;;;;;;;-144.73;71.76;54243.50;5005332;28;20461;-70
2023/05/10 04:08:11;;;;;;;14.75;4.60;;;;;;;-144.73;71.42;54204.50;5007746;28;20040;-70
2023/05/10 04:10:36;;;;;;;11.32;4.28;;;;;;;-144.73;70.07;54210.66;5010027;28;20021;-69
2023/05/10 04:13:01;;;;;;;12.50;4.72;;;;;;;-144.73;69.99;54222.97;5010180;28;20067;-70
2023/05/10 04:15:27;;;;;;;11.38;4.50;;;;;;;-144.73;69.87;54259.91;5030688;28;20021;-70
2023/05/10 04:17:53;;;;;;;8.60;4.25;;;;;;;-144.73;70.43;54229.13;5014899;28;20116;-70
2023/05/10 04:20:18;;;;;;;8.38;4.20;;;;;;;-144.73;70.41;54222.97;4999976;28;20018;-71
2023/05/10 04:22:44;;;;;;;9.77;4.72;;;;;;;-144.73;71.07;54194.25;5005515;28;20083;-70
2023/05/10 04:25:09;;;;;;;9.73;4.90;;;;;;;-144.73;71.19;54284.56;5011979;28;20100;-69
2023/05/10 04:27:35;;;;;;;12.95;4.55;;;;;;;-144.73;70.94;54255.81;5015029;28;20147;-70
2023/05/10 04:30:01;;;;;;;10.63;4.45;;;;;;;-144.73;71.48;54222.97;5002132;28;20025;-70
2023/05/10 04:32:26;;;;;;;13.70;4.43;;;;;;;-144.73;70.56;54220.94;5007043;28;20062;-70
2023/05/10 04:34:51;;;;;;;7.90;3.95;;;;;;;-144.73;70.38;54222.97;4999730;28;20457;-70
2023/05/10 04:37:17;;;;;;;16.83;4.68;;;;;;;-144.73;70.58;54247.59;5010129;28;20048;-70
2023/05/10 04:39:43;;;;;;;14.35;4.90;;;;;;;-144.73;70.40;54190.13;5010805;28;20033;-70
2023/05/10 04:42:09;;;;;;;17.83;4.53;;;;;;;-144.73;69.21;54222.97;5026858;28;20037;-69
2023/05/10 04:44:34;;;;;;;12.63;5.68;;;;;;;-144.73;70.20;54235.28;5027945;28;20095;-69
2023/05/10 04:47:00;;;;;;;8.02;4.43;;;;;;;-144.73;70.29;54198.34;5022746;28;20029;-71
2023/05/10 04:49:25;;;;;;;10.65;4.97;;;;;;;-144.73;69.89;54198.34;5027455;28;20133;-70
2023/05/10 04:51:50;;;;;;;12.68;4.55;;;;;;;-144.73;69.66;54198.34;5009268;28;20034;-70
2023/05/10 04:54:16;;;;;;;10.88;4.00;;;;;;;-144.73;69.90;54280.44;5005126;28;20026;-70
2023/05/10 04:56:41;;;;;;;10.73;4.90;;;;;;;-144.73;70.14;54276.34;5006331;28;20042;-70
2023/05/10 04:59:06;;;;;;;8.32;5.07;;;;;;;-144.73;71.04;54212.72;5009599;28;20029;-70
2023/05/10 05:01:32;;;;;;;12.82;4.40;;;;;;;-144.73;69.96;54227.09;5023098;28;20083;-69
2023/05/10 05:03:58;;;;;;;18.73;4.45;;;;;;;-144.73;68.78;54210.66;5006130;28;20037;-71
2023/05/10 05:06:24;;;;;;;10.85;4.20;;;;;;;-144.73;68.21;54198.34;5007545;28;20066;-70
2023/05/10 05:08:50;;;;;;;10.98;4.55;;;;;;;-144.73;68.52;54212.72;5001016;28;20025;-71
2023/05/10 05:11:15;;;;;;;15.70;5.38;;;;;;;-144.73;67.54;54218.88;5008996;28;20061;-70
2023/05/10 05:13:41;;;;;;;17.40;5.13;;;;;;;-144.73;67.73;54222.97;5007681;28;20112;-70
2023/05/10 05:16:06;;;;;;;20.20;4.85;;;;;;;-144.73;67.84;54247.59;5005559;28;20029;-70
2023/05/10 05:18:34;;;;;;;6.75;4.47;;;;;;;-144.73;68.00;54183.97;5010434;28;20037;-70
2023/05/10 05:21:00;;;;;;;12.18;4.70;;;;;;;-144.73;67.94;54251.72;5009378;28;20037;-70
2023/05/10 05:23:26;;;;;;;12.13;4.35;;;;;;;-144.73;68.31;54235.28;5023106;28;20380;-70
2023/05/10 05:25:52;;;;;;;13.00;5.10;;;;;;;-144.73;67.43;54202.44;5012882;28;20013;-70
2023/05/10 05:28:19;;;;;;;6.65;4.65;;;;;;;-144.73;67.59;54251.72;5012515;28;20090;-70
2023/05/10 05:30:44;;;;;;;12.40;4.72;;;;;;;-144.73;66.46;54222.97;5008107;28;20029;-71
2023/05/10 05:33:10;;;;;;;19.27;4.72;;;;;;;-144.73;67.12;54206.56;5023507;28;20377;-71
2023/05/10 05:35:35;;;;;;;11.25;5.05;;;;;;;-144.73;66.98;54210.66;5015984;28;20033;-73
2023/05/10 05:38:00;;;;;;;11.45;4.53;;;;;;;-144.73;66.82;54210.66;5025681;28;20452;-71
2023/05/10 05:40:26;;;;;;;12.25;5.20;;;;;;;-144.73;65.71;54253.75;5006631;28;20017;-71
2023/05/10 05:42:51;;;;;;;8.13;4.65;;;;;;;-144.73;65.19;54227.09;5024132;28;20040;-71
2023/05/10 05:45:17;;;;;;;7.35;4.82;;;;;;;-144.73;66.09;54218.88;5025757;28;20025;-71
2023/05/10 05:47:42;;;;;;;13.95;4.40;;;;;;;-144.73;65.71;54190.13;5025836;28;20034;-72
2023/05/10 05:50:08;;;;;;;11.00;4.78;;;;;;;-144.73;64.81;54206.56;5026543;28;20044;-71
2023/05/10 05:52:33;;;;;;;11.38;4.63;;;;;;;-144.73;64.65;54237.34;5023619;28;20026;-72
2023/05/10 05:54:58;;;;;;;10.43;4.53;;;;;;;-144.73;64.18;54218.88;5025413;28;20032;-72
2023/05/10 05:57:24;;;;;;;11.63;4.60;;;;;;;-144.73;63.82;54220.94;5023660;28;20120;-72
2023/05/10 05:59:49;;;;;;;9.25;4.40;;;;;;;-144.73;63.32;54222.97;5020008;28;20026;-72
2023/05/10 06:02:15;;;;;;;14.35;5.03;;;;;;;-144.73;62.64;54210.66;5002063;28;20070;-72
2023/05/10 06:04:40;;;;;;;19.25;4.85;;;;;;;-144.73;62.34;54227.09;5019956;28;20068;-72
2023/05/10 06:07:05;;;;;;;14.23;5.10;;;;;;;-144.73;60.73;54247.59;5008685;28;20025;-71
2023/05/10 06:09:31;;;;;;;7.72;4.50;;;;;;;-144.73;61.69;54194.25;5008609;28;20044;-72
2023/05/10 06:11:57;;;;;;;15.57;5.18;;;;;;;-144.73;61.22;54237.34;5006581;28;20029;-72
2023/05/10 06:14:22;;;;;;;13.30;5.45;;;;;;;-144.73;60.87;54210.66;5006950;28;20028;-72
2023/05/10 06:16:48;;;;;;;8.68;4.63;;;;;;;-144.73;61.95;54214.78;5022926;28;20026;-72
2023/05/10 06:19:13;;;;;;;9.13;4.60;;;;;;;-144.73;61.49;54235.28;5002069;28;20022;-72
2023/05/10 06:21:38;;;;;;;6.53;4.32;;;;;;;-144.73;61.10;54214.78;5021512;28;20052;-71
2023/05/10 06:24:06;;;;;;;12.95;4.90;;;;;;;-144.73;60.87;54255.81;5022167;28;20021;-72
2023/05/10 06:26:32;;;;;;;9.63;4.80;;;;;;;-144.73;59.77;54194.25;5018746;28;20034;-72
2023/05/10 06:28:57;;;;;;;11.70;5.20;;;;;;;-144.73;60.31;54243.50;5006391;28;20029;-72
2023/05/10 06:31:23;;;;;;;13.43;4.03;;;;;;;-144.73;59.43;54222.97;5020049;28;20557;-72
2023/05/10 06:33:48;;;;;;;8.07;5.00;;;;;;;-144.73;59.28;54202.44;5030045;28;20049;-72
2023/05/10 06:36:14;;;;;;;11.80;4.43;;;;;;;-144.73;60.41;54235.28;5004027;28;20037;-72
2023/05/10 06:38:39;;;;;;;11.35;4.57;;;;;;;-144.73;59.49;54186.03;5009276;28;20072;-72
2023/05/10 06:41:05;;;;;;;11.05;4.60;;;;;;;-144.73;58.76;54186.03;5006804;28;20507;-72
2023/05/10 06:43:31;;;;;;;10.30;5.13;;;;;;;-144.73;58.02;54214.78;5026470;28;20021;-71
2023/05/10 06:45:57;;;;;;;13.40;4.28;;;;;;;-144.73;57.99;54214.78;5010869;28;20033;-74
2023/05/10 06:48:22;;;;;;;9.48;4.60;;;;;;;-144.73;58.14;54188.09;5003406;28;20024;-72
2023/05/10 06:50:48;;;;;;;5.88;3.92;;;;;;;-144.73;57.54;54214.78;5008756;28;20018;-72
2023/05/10 06:53:13;;;;;;;5.75;4.22;;;;;;;-144.73;56.81;54198.34;5004606;28;20072;-73
2023/05/10 06:55:39;;;;;;;4.90;4.30;;;;;;;-144.73;56.93;54163.47;5019134;28;20026;-71
2023/05/10 06:58:05;;;;;;;9.27;5.18;;;;;;;-144.73;57.12;54194.25;5004460;28;20044;-73
2023/05/10 07:00:30;;;;;;;15.70;4.82;;;;;;;-144.73;56.98;54231.19;5017546;28;20029;-71
2023/05/10 07:02:55;;;;;;;12.18;5.10;;;;;;;-144.73;57.24;54194.25;5005770;28;20114;-71
2023/05/10 07:05:21;;;;;;;11.75;5.28;;;;;;;-144.73;56.77;54218.88;5003235;28;20022;-71
2023/05/10 07:07:46;;;;;;;9.05;4.88;;;;;;;-144.73;56.66;54214.78;5004449;28;20079;-71
2023/05/10 07:10:12;;;;;;;8.23;4.30;;;;;;;-144.73;57.18;54218.88;5017875;28;20026;-73
2023/05/10 07:12:38;;;;;;;8.57;4.30;;;;;;;-144.73;56.90;54202.44;5003521;28;20025;-71
2023/05/10 07:15:04;;;;;;;6.93;4.45;;;;;;;-144.73;57.01;54216.81;4987631;28;20148;-71
2023/05/10 07:17:29;;;;;;;8.30;4.28;;;;;;;-144.73;57.10;54202.44;4996467;28;20053;-71
2023/05/10 07:19:54;;;;;;;12.75;4.68;;;;;;;-144.73;57.40;54169.63;5000592;28;20059;-71
2023/05/10 07:22:20;;;;;;;8.15;4.80;;;;;;;-144.73;57.02;54202.44;4995562;28;20038;-71
2023/05/10 07:24:46;;;;;;;18.85;4.80;;;;;;;-144.73;57.47;54214.78;4996813;28;20020;-71
2023/05/10 07:27:12;;;;;;;13.32;4.50;;;;;;;-144.73;57.07;54194.25;5015012;28;20034;-71
2023/05/10 07:29:38;;;;;;;15.48;4.07;;;;;;;-144.73;57.44;54194.25;5002779;28;20096;-73
2023/05/10 07:32:03;;;;;;;12.88;4.75;;;;;;;-144.73;56.60;54243.50;4996045;28;20121;-71
2023/05/10 07:34:30;;;;;;;14.13;4.78;;;;;;;-144.73;56.60;54222.97;4997451;28;20037;-71
2023/05/10 07:36:57;;;;;;;23.63;5.03;;;;;;;-144.73;56.06;54200.41;4993624;28;20038;-71
2023/05/10 07:39:23;;;;;;;19.55;4.57;;;;;;;-144.73;56.32;54190.13;5017923;28;20049;-70
2023/05/10 07:41:48;;;;;;;18.35;5.25;;;;;;;-144.73;56.03;54210.66;5014686;28;20072;-71
2023/05/10 07:44:13;;;;;;;15.25;5.03;;;;;;;-144.73;56.24;54210.66;4997340;28;20137;-71
2023/05/10 07:46:39;;;;;;;24.73;5.07;;;;;;;-144.73;55.95;54222.97;4996930;28;20034;-72
2023/05/10 07:49:04;;;;;;;13.35;4.32;;;;;;;-144.73;55.78;54210.66;4995067;28;20115;-71
2023/05/10 07:51:29;;;;;;;30.13;5.07;;;;;;;-144.73;55.07;54210.66;4998531;28;20041;-72
2023/05/10 07:53:55;;;;;;;18.77;5.10;;;;;;;-144.73;54.25;54179.88;4986991;28;20026;-72
2023/05/10 07:56:31;;;;;;;9.95;4.40;;;;;;;-144.73;54.94;54251.72;5011620;28;20050;-72
2023/05/10 07:59:00;;;;;;;6.50;4.32;;;;;;;-144.73;55.63;54167.56;4999791;28;20107;-71
2023/05/10 08:01:29;;;;;;;13.95;4.47;;;;;;;-144.73;55.44;54177.81;5014884;28;20021;-71
2023/05/10 08:03:54;;;;;;;12.82;4.53;;;;;;;-144.73;54.45;54216.81;5001951;28;20021;-71
2023/05/10 08:06:20;;;;;;;11.95;4.60;;;;;;;-144.73;54.39;54227.09;5002410;28;20042;-71
2023/05/10 08:08:49;;;;;;;12.80;4.78;;;;;;;-144.73;54.57;54183.97;5014535;28;20185;-73
2023/05/10 08:11:18;;;;;;;15.70;4.57;;;;;;;-144.73;54.07;54198.34;4990773;28;20041;-73
2023/05/10 08:13:48;;;;;;;9.77;4.82;;;;;;;-144.73;54.42;54206.56;4993289;28;20026;-73
2023/05/10 08:16:13;;;;;;;8.27;4.72;;;;;;;-144.73;54.16;54202.44;5017032;28;20034;-73
2023/05/10 08:18:39;;;;;;;7.78;4.57;;;;;;;-144.73;54.88;54247.59;4990135;28;20040;-72
2023/05/10 08:21:05;;;;;;;12.88;5.00;;;;;;;-144.73;53.65;54190.13;4999951;28;20033;-73
2023/05/10 08:23:30;;;;;;;12.35;4.57;;;;;;;-144.73;55.98;54198.34;4998937;28;20022;-70
2023/05/10 08:25:56;;;;;;;13.95;4.30;;;;;;;-144.73;56.01;54210.66;5001364;28;20027;-72
2023/05/10 08:28:21;;;;;;;16.75;5.07;;;;;;;-144.73;55.96;54214.78;5002028;28;20014;-72
2023/05/10 08:30:46;;;;;;;14.65;4.35;;;;;;;-144.73;54.97;54227.09;5014992;28;20473;-73
2023/05/10 08:33:12;;;;;;;7.10;4.75;;;;;;;-144.73;53.39;54192.19;5011568;28;20104;-73
2023/05/10 08:35:37;;;;;;;10.07;4.85;;;;;;;-144.73;53.57;54200.41;4998572;28;20363;-73
2023/05/10 08:38:03;;;;;;;15.55;4.22;;;;;;;-144.73;54.14;54177.81;5018587;28;20088;-72
2023/05/10 08:40:28;;;;;;;31.45;5.47;;;;;;;-144.73;53.57;54196.28;4997150;28;20085;-73
2023/05/10 08:43:06;;;;;;;7.13;4.50;;;;;;;-144.73;53.43;54157.31;4997068;28;20100;-72
2023/05/10 08:45:36;;;;;;;11.30;4.60;;;;;;;-144.73;53.75;54227.09;5002179;28;20025;-73
2023/05/10 08:48:04;;;;;;;18.52;4.85;;;;;;;-144.73;53.50;54231.19;5014425;28;20034;-72
2023/05/10 08:50:31;;;;;;;12.93;4.80;;;;;;;-144.73;54.10;54192.19;5014200;28;20121;-73
2023/05/10 08:52:59;;;;;;;14.60;4.95;;;;;;;-144.73;54.21;54175.78;5014554;28;20126;-73
2023/05/10 08:55:25;;;;;;;11.93;4.78;;;;;;;-144.73;54.46;54192.19;5002754;28;20017;-72
2023/05/10 08:57:51;;;;;;;7.43;5.03;;;;;;;-144.73;53.24;54239.41;5000175;28;20045;-73
2023/05/10 09:00:18;;;;;;;11.85;4.85;;;;;;;-144.73;53.63;54214.78;4999347;28;20021;-73
2023/05/10 09:02:45;;;;;;;17.60;5.15;;;;;;;-144.73;53.55;54181.94;5000209;28;20045;-73
2023/05/10 09:05:11;;;;;;;11.50;4.82;;;;;;;-144.73;54.40;54198.34;5001322;28;20032;-73
2023/05/10 09:07:36;;;;;;;22.27;5.32;;;;;;;-144.73;53.74;54222.97;5003864;28;20034;-73
2023/05/10 09:10:02;;;;;;;11.63;5.38;;;;;;;-144.73;53.70;54177.81;4999857;28;20025;-73
2023/05/10 09:12:27;;;;;;;11.75;4.45;;;;;;;-144.73;53.94;54227.09;4999353;28;20022;-72
2023/05/10 09:14:54;;;;;;;12.07;4.70;;;;;;;-144.73;55.36;54204.50;5014852;28;20022;-73
2023/05/10 09:17:21;;;;;;;12.20;4.65;;;;;;;-144.73;56.11;54186.03;5003510;28;20029;-72
2023/05/10 09:19:46;;;;;;;14.55;5.18;;;;;;;-144.73;55.19;54239.41;4997761;28;20120;-71
2023/05/10 09:22:12;;;;;;;17.00;5.35;;;;;;;-144.73;54.99;54202.44;4998703;28;20116;-71
2023/05/10 09:24:42;;;;;;;17.10;5.05;;;;;;;-144.73;55.22;54218.88;5017273;28;20129;-71
2023/05/10 09:27:07;;;;;;;10.93;4.82;;;;;;;-144.73;54.39;54222.97;4995915;28;20117;-71
2023/05/10 09:29:43;;;;;;;15.88;5.22;;;;;;;-144.73;54.59;54198.34;5002115;28;20037;-71
2023/05/10 09:32:11;;;;;;;11.50;5.20;;;;;;;-144.73;55.80;54196.28;5013897;28;20105;-71
2023/05/10 09:34:39;;;;;;;14.27;4.60;;;;;;;-144.73;57.13;54214.78;5019864;28;20110;-71
2023/05/10 09:37:05;;;;;;;11.68;5.30;;;;;;;-144.73;57.53;54247.59;5001890;28;20042;-71
2023/05/10 09:39:35;;;;;;;11.43;4.78;;;;;;;-144.73;55.45;54202.44;5018382;28;20048;-71
2023/05/10 09:42:06;;;;;;;17.42;6.13;;;;;;;-144.73;56.99;54231.19;5010246;28;20038;-71
2023/05/10 09:44:33;;;;;;;10.45;6.18;;;;;;;-144.73;56.76;54165.50;4995612;28;20478;-72
2023/05/10 09:46:58;;;;;;;18.77;6.05;;;;;;;-144.73;57.72;54212.72;5012139;28;20046;-71
2023/05/10 09:49:24;;;;;;;12.95;5.07;;;;;;;-144.73;59.43;54206.56;5011585;28;20013;-73
2023/05/10 09:52:04;;;;;;;12.75;5.38;;;;;;;-144.73;60.50;54206.56;4996094;28;20057;-73
2023/05/10 09:54:30;;;;;;;10.43;5.57;;;;;;;-144.73;60.20;54222.97;5000781;28;20029;-73
2023/05/10 09:56:56;;;;;;;10.52;5.38;;;;;;;-144.73;60.90;54239.41;5003647;28;20030;-71
2023/05/10 09:59:24;;;;;;;14.27;6.15;;;;;;;-144.73;62.49;54206.56;5014137;28;20029;-72
2023/05/10 10:01:51;;;;;;;8.27;6.05;;;;;;;-144.73;63.58;54227.09;5002870;28;20041;-70
2023/05/10 10:04:17;;;;;;;12.05;5.90;;;;;;;-144.73;65.09;54239.41;5018772;28;20025;-71
2023/05/10 10:06:42;;;;;;;10.85;5.65;;;;;;;-144.73;68.45;54239.41;4991409;28;20524;-72
2023/05/10 10:09:09;;;;;;;18.50;6.55;;;;;;;-144.73;76.60;54198.34;4998613;28;20030;-71
2023/05/10 10:11:35;;;;;;;18.52;7.82;;;;;;;-144.73;84.67;54214.78;5012718;28;20504;-72
2023/05/10 10:14:01;;;;;;;16.70;7.68;;;;;;;-144.73;94.80;54202.44;5002214;28;20238;-71
2023/05/10 10:16:29;;;;;;;14.43;7.65;;;;;;;-144.73;99.83;54243.50;5019616;28;20033;-71
2023/05/10 10:18:55;;;;;;;21.42;8.93;;;;;;;-144.73;100.00;54198.34;5001841;28;20014;-71
2023/05/10 10:21:21;;;;;;;14.93;7.80;;;;;;;-144.73;100.00;54231.19;5004476;28;20038;-71
2023/05/10 10:23:47;;;;;;;19.23;9.40;;;;;;;-144.73;100.00;54227.09;5015982;28;20100;-71
2023/05/10 10:26:12;;;;;;;18.55;9.82;;;;;;;-144.73;100.00;54206.56;5003539;28;20117;-71
2023/05/10 10:28:49;;;;;;;21.33;9.13;;;;;;;-144.73;100.00;54245.56;5017502;28;20032;-71
2023/05/10 10:31:45;;;;;;;20.40;10.85;;;;;;;-144.73;100.00;54241.44;5022192;28;20120;-71
2023/05/10 10:34:18;;;;;;;15.52;11.18;;;;;;;-144.73;100.00;54218.88;4994181;28;20034;-72
2023/05/10 10:36:45;;;;;;;18.88;11.32;;;;;;;-144.73;100.00;54218.88;5003468;28;20033;-72
2023/05/10 10:39:12;;;;;;;19.63;12.50;;;;;;;-144.73;100.00;54169.63;5003359;28;20026;-72
2023/05/10 10:41:40;;;;;;;21.77;12.82;;;;;;;-144.73;100.00;54218.88;5003550;28;20034;-72
2023/05/10 10:44:21;;;;;;;20.33;12.48;;;;;;;-144.73;100.00;54276.34;4992893;28;20388;-71
2023/05/10 10:47:13;;;;;;;26.75;12.95;;;;;;;-144.73;100.00;54276.34;5015903;28;20030;-71
2023/05/10 10:49:48;;;;;;;18.88;12.25;;;;;;;-144.73;100.00;54257.88;5012683;28;20020;-72
2023/05/10 10:52:23;;;;;;;20.70;13.63;;;;;;;-144.73;100.00;54214.78;5002078;28;20041;-73
2023/05/10 10:55:13;;;;;;;19.17;13.18;;;;;;;-144.73;100.00;54239.41;5001077;28;20093;-73
2023/05/10 10:57:54;;;;;;;19.15;13.65;;;;;;;-144.73;100.00;54206.56;4990780;28;20109;-73
2023/05/10 11:00:20;;;;;;;24.38;14.80;;;;;;;-144.73;100.00;54235.28;5000235;28;20022;-73
2023/05/10 11:02:48;;;;;;;28.05;15.85;;;;;;;-144.73;100.00;54235.28;5002668;28;20082;-73
2023/05/10 11:05:23;;;;;;;20.08;13.20;;;;;;;-144.73;100.00;54294.81;4997632;28;20043;-73
2023/05/10 11:07:54;;;;;;;19.73;11.55;;;;;;;-144.73;100.00;54233.25;5014733;28;20041;-73
2023/05/10 11:10:25;;;;;;;35.05;13.57;;;;;;;-144.73;100.00;54296.88;5000666;28;20029;-74
2023/05/10 11:13:04;;;;;;;115.88;20.17;;;;;;;-144.73;100.00;54268.13;5019327;28;20378;-74